Time;durP1;ratioP1;P1;durP2;ratioP2;P2;SDS_P1;SDS_P2;PMS_P1;PMS_P2;Temp;Humidity;BMP_temperature;BMP_pressure;BME280_temperature;BME280_humidity;BME280_pressure;Samples;Min_cycle;Max_cycle;Signal;HPM_P1;HPM_P2
2022/03/30 00:01:06;;;;;;;20.83;13.77;;;;;;;9.17;80.38;95011.41;5106549;28;20020;-74
2022/03/30 00:03:31;;;;;;;27.33;14.17;;;;;;;9.24;79.56;95007.06;5106732;28;20103;-74
2022/03/30 00:05:57;;;;;;;19.93;13.13;;;;;;;9.33;78.30;95010.44;5103651;28;20027;-73
2022/03/30 00:08:23;;;;;;;24.07;14.37;;;;;;;9.29;78.33;95002.13;5107561;28;20055;-74
2022/03/30 00:10:48;;;;;;;20.27;13.50;;;;;;;9.24;79.51;95004.44;5091701;28;20037;-74
2022/03/30 00:13:15;;;;;;;21.40;13.43;;;;;;;9.30;78.53;95006.34;5105559;28;20027;-74
2022/03/30 00:15:41;;;;;;;20.43;13.73;;;;;;;9.32;78.65;94998.28;5106300;28;20024;-75
2022/03/30 00:18:07;;;;;;;20.83;14.30;;;;;;;9.25;78.66;95000.81;5107616;28;20088;-74
2022/03/30 00:20:33;;;;;;;21.53;13.57;;;;;;;9.11;79.91;94999.03;5105733;28;20419;-73
2022/03/30 00:22:58;;;;;;;24.03;14.33;;;;;;;9.08;80.33;94994.94;5103898;28;20477;-74
2022/03/30 00:25:24;;;;;;;23.03;14.77;;;;;;;9.00;81.21;94996.84;5107904;28;20031;-74
2022/03/30 00:27:50;;;;;;;22.93;14.00;;;;;;;9.10;80.65;94986.91;5105299;28;20051;-74
2022/03/30 00:30:17;;;;;;;21.70;13.97;;;;;;;9.11;80.50;94985.91;5106481;28;20433;-74
2022/03/30 00:32:44;;;;;;;22.50;14.87;;;;;;;9.10;79.80;94992.16;5102827;28;20061;-74
2022/03/30 00:35:10;;;;;;;23.33;14.17;;;;;;;9.09;80.12;94987.91;5097050;28;20023;-74
2022/03/30 00:37:36;;;;;;;22.90;14.47;;;;;;;8.93;81.17;94986.28;5103821;28;20507;-74
2022/03/30 00:40:04;;;;;;;21.57;14.37;;;;;;;8.93;82.38;94978.41;5106711;28;20024;-74
2022/03/30 00:42:30;;;;;;;19.93;13.93;;;;;;;8.94;82.68;94983.44;5106981;28;20044;-74
2022/03/30 00:44:56;;;;;;;20.00;13.40;;;;;;;8.87;83.37;94990.41;5107555;28;20027;-74
2022/03/30 00:47:24;;;;;;;24.17;14.10;;;;;;;8.78;83.65;94988.84;5119015;28;20035;-74
2022/03/30 00:49:51;;;;;;;23.33;14.37;;;;;;;8.73;84.56;94986.78;5098035;28;20035;-74
2022/03/30 00:52:18;;;;;;;21.57;14.40;;;;;;;8.77;84.68;94982.00;5105354;28;20180;-73
2022/03/30 00:54:47;;;;;;;22.03;14.13;;;;;;;8.80;85.05;94981.63;5100040;28;20031;-74
2022/03/30 00:57:14;;;;;;;24.13;14.03;;;;;;;8.83;84.29;94983.91;5107869;28;20020;-74
2022/03/30 00:59:41;;;;;;;20.30;14.30;;;;;;;8.83;84.28;94977.84;5103514;28;20131;-74
2022/03/30 01:02:08;;;;;;;25.83;14.73;;;;;;;8.71;85.24;94983.50;5104164;28;20042;-73
2022/03/30 01:04:34;;;;;;;24.13;15.17;;;;;;;8.54;87.36;94979.41;5106736;28;20055;-74
2022/03/30 01:07:00;;;;;;;22.23;14.37;;;;;;;8.46;88.36;94972.44;5101160;28;20032;-74
2022/03/30 01:09:26;;;;;;;27.03;15.57;;;;;;;8.57;88.03;94970.41;5110157;27;20754;-74
2022/03/30 01:11:57;;;;;;;20.87;14.90;;;;;;;8.71;87.77;94970.41;5107336;27;21703;-74
2022/03/30 01:14:23;;;;;;;27.27;15.47;;;;;;;8.68;87.03;94973.38;5106415;28;20035;-74
2022/03/30 01:16:50;;;;;;;20.13;14.77;;;;;;;8.73;86.45;94968.44;5110003;28;20031;-74
2022/03/30 01:19:16;;;;;;;24.80;15.27;;;;;;;8.67;86.87;94961.28;5087955;28;20047;-74
2022/03/30 01:21:46;;;;;;;25.10;14.83;;;;;;;8.70;86.81;94950.44;5104264;28;20287;-74
2022/03/30 01:24:13;;;;;;;23.20;15.07;;;;;;;8.60;87.73;94949.88;5109785;28;20031;-74
2022/03/30 01:26:40;;;;;;;20.80;14.57;;;;;;;8.61;88.06;94945.47;5103459;28;20089;-75
2022/03/30 01:34:38;;;;;;;22.57;14.93;;;;;;;8.53;88.77;94933.25;5098401;28;20028;-74
2022/03/30 01:37:07;;;;;;;26.50;14.77;;;;;;;8.55;88.88;94926.03;5104964;28;20081;-73
2022/03/30 01:39:33;;;;;;;24.47;16.17;;;;;;;8.41;90.13;94924.19;5110266;28;20044;-74
2022/03/30 01:41:59;;;;;;;24.17;15.90;;;;;;;8.33;92.13;94921.63;5109260;28;20105;-74
2022/03/30 01:44:24;;;;;;;28.30;16.00;;;;;;;8.24;92.06;94920.88;5110398;28;20114;-74
2022/03/30 01:46:51;;;;;;;25.10;15.97;;;;;;;8.25;93.04;94915.47;5108533;28;20036;-74
2022/03/30 01:49:21;;;;;;;19.97;14.63;;;;;;;8.34;92.10;94923.25;5111166;28;20089;-73
2022/03/30 01:51:55;;;;;;;22.30;15.43;;;;;;;8.38;91.97;94908.81;5108031;28;20063;-73
2022/03/30 01:54:22;;;;;;;19.90;14.27;;;;;;;8.41;91.53;94911.09;5101663;27;20666;-74
2022/03/30 01:56:50;;;;;;;22.27;14.43;;;;;;;8.47;91.24;94913.00;5108196;27;20021;-74
2022/03/30 01:59:16;;;;;;;23.57;14.50;;;;;;;8.46;91.65;94906.13;5108272;28;20054;-74
2022/03/30 02:01:42;;;;;;;21.37;14.77;;;;;;;8.56;90.48;94905.88;5109400;28;20032;-74
2022/03/30 02:04:09;;;;;;;20.13;13.97;;;;;;;8.50;90.67;94905.59;5100396;28;20065;-74
2022/03/30 02:06:36;;;;;;;20.57;14.80;;;;;;;8.49;91.05;94903.97;5107277;28;20555;-74
2022/03/30 02:09:04;;;;;;;20.97;14.87;;;;;;;8.55;90.84;94899.00;5106070;28;20028;-74
2022/03/30 02:11:29;;;;;;;24.83;15.63;;;;;;;8.52;91.27;94894.94;5120138;28;20042;-73
2022/03/30 02:13:56;;;;;;;25.20;15.83;;;;;;;8.56;91.11;94898.84;5114182;28;20504;-74
2022/03/30 02:16:22;;;;;;;22.63;14.00;;;;;;;8.47;90.78;94894.66;5108699;28;20028;-73
2022/03/30 02:18:48;;;;;;;22.00;15.33;;;;;;;8.40;91.81;94901.59;5108137;28;20052;-74
2022/03/30 02:21:15;;;;;;;24.40;14.27;;;;;;;8.47;92.02;94900.72;5110229;28;20035;-74
2022/03/30 02:23:42;;;;;;;23.83;15.17;;;;;;;8.38;92.26;94895.72;5108447;28;20031;-74
2022/03/30 02:26:08;;;;;;;23.63;15.83;;;;;;;8.30;92.77;94891.34;5104923;28;20035;-75
2022/03/30 02:28:34;;;;;;;24.00;15.10;;;;;;;8.42;92.89;94892.59;5108607;28;20038;-75
2022/03/30 02:31:00;;;;;;;22.13;15.47;;;;;;;8.41;92.75;94882.28;5109742;27;20031;-74
2022/03/30 02:33:26;;;;;;;20.93;14.33;;;;;;;8.25;93.24;94884.03;5092412;28;20027;-75
2022/03/30 02:35:53;;;;;;;29.93;15.80;;;;;;;8.27;93.70;94879.41;5101742;28;20035;-74
2022/03/30 02:38:19;;;;;;;21.80;15.70;;;;;;;8.21;94.06;94882.75;5106035;28;20032;-75
2022/03/30 02:40:46;;;;;;;24.13;15.30;;;;;;;8.15;95.06;94880.03;5101648;28;20081;-75
2022/03/30 02:43:14;;;;;;;21.77;14.80;;;;;;;8.14;96.53;94881.03;5095256;28;20139;-74
2022/03/30 02:45:39;;;;;;;23.77;15.53;;;;;;;8.23;95.05;94879.97;5109437;28;20768;-74
2022/03/30 02:48:22;;;;;;;30.27;15.73;;;;;;;8.07;96.68;94880.09;5101808;28;20020;-74
2022/03/30 02:50:52;;;;;;;25.30;16.00;;;;;;;8.10;97.34;94874.53;5109547;28;20039;-75
2022/03/30 02:53:19;;;;;;;28.97;17.43;;;;;;;7.99;99.19;94873.16;5108929;28;20361;-75
2022/03/30 02:55:45;;;;;;;26.07;14.70;;;;;;;7.90;100.00;94868.97;5106707;28;20033;-74
2022/03/30 02:58:11;;;;;;;23.23;16.37;;;;;;;7.86;100.00;94865.88;5100348;28;20017;-75
2022/03/30 03:00:41;;;;;;;28.30;15.53;;;;;;;7.65;100.00;94863.91;5102544;28;20036;-75
2022/03/30 03:03:08;;;;;;;21.97;15.00;;;;;;;7.87;100.00;94864.06;5107196;28;20504;-75
2022/03/30 03:05:34;;;;;;;24.70;16.60;;;;;;;7.71;100.00;94865.84;5107543;27;20136;-74
2022/03/30 03:08:05;;;;;;;26.20;16.13;;;;;;;7.64;100.00;94858.84;5106362;28;20054;-74
2022/03/30 03:10:34;;;;;;;27.90;16.77;;;;;;;7.63;100.00;94863.28;5107928;28;20046;-74
2022/03/30 03:13:03;;;;;;;22.97;14.43;;;;;;;7.73;100.00;94858.63;5098919;28;20122;-74
2022/03/30 03:15:33;;;;;;;27.13;17.03;;;;;;;7.79;100.00;94863.16;5103221;27;20077;-75
2022/03/30 03:18:00;;;;;;;23.47;15.57;;;;;;;7.85;100.00;94861.66;5109331;27;20064;-74
2022/03/30 03:20:25;;;;;;;22.77;15.87;;;;;;;7.85;100.00;94861.66;5091718;28;20036;-75
2022/03/30 03:22:51;;;;;;;24.70;16.20;;;;;;;7.84;100.00;94854.75;5103957;28;20026;-74
2022/03/30 03:25:17;;;;;;;20.83;14.20;;;;;;;7.84;100.00;94859.19;5107072;28;20062;-74
2022/03/30 03:27:43;;;;;;;31.13;23.37;;;;;;;7.84;100.00;94846.09;5104729;28;20054;-74
2022/03/30 03:30:10;;;;;;;34.43;22.10;;;;;;;7.84;100.00;94853.94;5110543;28;20027;-75
2022/03/30 03:32:36;;;;;;;28.90;18.43;;;;;;;7.83;100.00;94845.28;5108531;28;20538;-75
2022/03/30 03:35:03;;;;;;;22.97;15.60;;;;;;;7.78;100.00;94853.69;5106758;28;20419;-75
2022/03/30 03:37:30;;;;;;;25.40;15.57;;;;;;;7.65;100.00;94852.66;5103503;28;20523;-75
2022/03/30 03:39:56;;;;;;;22.43;15.07;;;;;;;7.67;100.00;94851.47;5087035;28;20036;-74
2022/03/30 03:42:22;;;;;;;24.63;16.30;;;;;;;7.80;100.00;94850.88;5106923;28;20102;-74
2022/03/30 03:44:47;;;;;;;24.17;15.77;;;;;;;7.86;100.00;94841.50;5106069;28;20035;-74
2022/03/30 03:47:13;;;;;;;24.67;16.70;;;;;;;7.88;100.00;94845.59;5104637;28;20513;-74
2022/03/30 03:49:39;;;;;;;23.07;15.57;;;;;;;7.72;100.00;94838.69;5108488;28;20507;-74
2022/03/30 03:52:06;;;;;;;24.43;16.50;;;;;;;7.78;100.00;94835.38;5107417;28;20051;-73
2022/03/30 03:54:32;;;;;;;23.73;15.43;;;;;;;7.75;100.00;94843.56;5112674;28;20039;-74
2022/03/30 03:56:58;;;;;;;25.83;16.73;;;;;;;7.83;100.00;94831.41;5102312;28;20038;-74
2022/03/30 03:59:24;;;;;;;26.13;17.93;;;;;;;7.80;100.00;94835.16;5092609;28;20020;-74
2022/03/30 04:01:50;;;;;;;26.27;17.87;;;;;;;7.68;100.00;94834.78;5108468;28;20035;-74
2022/03/30 04:04:17;;;;;;;23.40;16.43;;;;;;;7.43;100.00;94830.72;5100924;28;20585;-74
2022/03/30 04:06:43;;;;;;;24.30;18.17;;;;;;;7.19;100.00;94835.13;5108199;28;20036;-74
2022/03/30 04:09:09;;;;;;;24.40;17.37;;;;;;;7.01;100.00;94827.53;5108261;28;20054;-74
2022/03/30 04:11:34;;;;;;;26.77;16.67;;;;;;;7.08;100.00;94827.69;5106678;28;20043;-74
2022/03/30 04:14:00;;;;;;;25.27;16.77;;;;;;;7.17;100.00;94825.81;5089632;28;20032;-74
2022/03/30 04:16:26;;;;;;;23.73;15.83;;;;;;;7.26;100.00;94822.97;5107044;28;20031;-73
2022/03/30 04:18:52;;;;;;;24.77;17.90;;;;;;;7.30;100.00;94829.47;5106725;28;20492;-74
2022/03/30 04:21:18;;;;;;;29.80;18.60;;;;;;;7.26;100.00;94822.97;5107744;28;20032;-73
2022/03/30 04:23:44;;;;;;;27.50;18.47;;;;;;;7.31;100.00;94815.44;5117978;28;20048;-74
2022/03/30 04:26:10;;;;;;;25.23;16.57;;;;;;;7.27;100.00;94816.75;5108512;28;20459;-74
2022/03/30 04:28:40;;;;;;;26.10;16.90;;;;;;;7.40;100.00;94810.13;5108433;28;20061;-74
2022/03/30 04:31:07;;;;;;;27.93;17.33;;;;;;;7.40;100.00;94810.13;5088413;28;20073;-74
2022/03/30 04:33:33;;;;;;;23.10;16.20;;;;;;;7.44;100.00;94814.03;5108097;28;20031;-74
2022/03/30 04:35:59;;;;;;;36.23;17.80;;;;;;;7.42;100.00;94816.81;5107090;28;20047;-73
2022/03/30 04:38:25;;;;;;;27.63;18.17;;;;;;;7.44;100.00;94804.38;5088878;28;20047;-73
2022/03/30 04:40:51;;;;;;;28.27;17.73;;;;;;;7.35;100.00;94805.44;5102425;28;20019;-74
2022/03/30 04:43:16;;;;;;;29.90;17.33;;;;;;;7.42;100.00;94803.75;5107689;28;20031;-74
2022/03/30 04:45:42;;;;;;;26.23;17.00;;;;;;;7.52;100.00;94806.94;5105206;28;20059;-74
2022/03/30 04:48:08;;;;;;;26.07;17.70;;;;;;;7.58;100.00;94805.44;5109674;27;20102;-74
2022/03/30 04:50:33;;;;;;;28.33;16.73;;;;;;;7.61;100.00;94804.25;5111483;28;20020;-74
2022/03/30 04:52:59;;;;;;;23.00;16.97;;;;;;;7.54;100.00;94812.81;5107074;28;20042;-74
2022/03/30 04:55:26;;;;;;;33.77;18.47;;;;;;;7.55;100.00;94808.41;5109776;28;20027;-74
2022/03/30 04:57:52;;;;;;;25.67;17.53;;;;;;;7.63;100.00;94805.72;5109220;27;20027;-74
2022/03/30 05:00:18;;;;;;;25.97;17.20;;;;;;;7.57;100.00;94807.22;5100708;27;20024;-74
2022/03/30 05:02:44;;;;;;;35.93;23.93;;;;;;;7.53;100.00;94805.94;5110916;28;20053;-74
2022/03/30 05:05:10;;;;;;;42.97;28.00;;;;;;;7.56;100.00;94810.81;5104849;27;20034;-74
2022/03/30 05:07:39;;;;;;;35.10;24.27;;;;;;;7.59;100.00;94803.63;5105566;28;20468;-74
2022/03/30 05:10:09;;;;;;;35.30;23.40;;;;;;;7.61;100.00;94804.25;5093029;28;20652;-74
2022/03/30 05:12:35;;;;;;;31.93;18.97;;;;;;;7.45;100.00;94806.03;5109341;27;20026;-74
2022/03/30 05:15:01;;;;;;;26.33;17.13;;;;;;;7.52;100.00;94806.13;5105201;27;20028;-74
2022/03/30 05:17:26;;;;;;;28.60;16.03;;;;;;;7.63;100.00;94812.75;5118517;27;20027;-74
2022/03/30 05:19:52;;;;;;;26.60;19.10;;;;;;;7.63;100.00;94808.31;5114386;27;20066;-75
2022/03/30 05:22:18;;;;;;;33.07;19.17;;;;;;;7.57;100.00;94812.44;5113490;27;20027;-74
2022/03/30 05:24:43;;;;;;;28.07;17.97;;;;;;;7.59;100.00;94808.88;5111362;28;20019;-74
2022/03/30 05:27:09;;;;;;;27.00;18.07;;;;;;;7.52;100.00;94808.75;5093056;28;20028;-75
2022/03/30 05:29:36;;;;;;;26.20;17.53;;;;;;;7.55;100.00;94809.22;5109822;28;20428;-75
2022/03/30 05:32:02;;;;;;;35.13;21.60;;;;;;;7.58;100.00;94808.06;5108907;27;20027;-74
2022/03/30 05:34:28;;;;;;;36.83;21.03;;;;;;;7.56;100.00;94808.22;5105729;28;20152;-74
2022/03/30 05:36:56;;;;;;;27.80;19.33;;;;;;;7.50;100.00;94818.56;5104905;28;20437;-75
2022/03/30 05:39:22;;;;;;;29.40;18.97;;;;;;;7.53;100.00;94808.56;5109445;28;20043;-75
2022/03/30 05:41:48;;;;;;;31.67;19.73;;;;;;;7.51;100.00;94812.34;5109792;28;20036;-75
2022/03/30 05:44:14;;;;;;;30.90;21.13;;;;;;;7.49;100.00;94822.19;5108402;27;20035;-74
2022/03/30 05:46:39;;;;;;;31.83;21.83;;;;;;;7.50;100.00;94814.13;5107317;28;20073;-74
2022/03/30 05:49:05;;;;;;;30.77;23.17;;;;;;;7.51;100.00;94820.19;5109400;28;20084;-74
2022/03/30 05:51:32;;;;;;;31.33;20.47;;;;;;;7.50;100.00;94818.56;5100498;28;20448;-74
2022/03/30 05:53:58;;;;;;;30.20;19.10;;;;;;;7.57;100.00;94820.28;5109097;28;20034;-75
2022/03/30 05:59:10;;;;;;;28.27;18.87;;;;;;;7.50;100.00;94822.00;5101554;28;20031;-75
2022/03/30 06:01:35;;;;;;;29.30;20.47;;;;;;;7.48;100.00;94818.75;5100808;28;20081;-74
2022/03/30 06:04:02;;;;;;;32.87;19.40;;;;;;;7.45;100.00;94824.34;5105572;28;20028;-75
2022/03/30 06:06:28;;;;;;;31.00;19.03;;;;;;;7.48;100.00;94818.75;5110429;28;20020;-74
2022/03/30 06:08:53;;;;;;;33.73;20.57;;;;;;;7.50;100.00;94823.78;5115603;27;20039;-75
2022/03/30 06:11:19;;;;;;;28.60;20.10;;;;;;;7.49;100.00;94820.38;5101546;27;20028;-76
2022/03/30 06:13:45;;;;;;;31.80;20.67;;;;;;;7.44;100.00;94817.44;5109840;28;20448;-75
2022/03/30 06:16:13;;;;;;;32.37;21.47;;;;;;;7.41;100.00;94827.44;5110522;28;20685;-75
2022/03/30 06:18:39;;;;;;;28.27;19.90;;;;;;;7.41;100.00;94824.84;5108272;28;20039;-75
2022/03/30 06:21:05;;;;;;;32.97;20.40;;;;;;;7.38;100.00;94827.78;5109080;28;20046;-75
2022/03/30 06:23:31;;;;;;;37.30;21.10;;;;;;;7.36;100.00;94824.56;5102799;28;20119;-74
2022/03/30 06:25:56;;;;;;;31.90;21.10;;;;;;;7.30;100.00;94829.47;5108165;28;20122;-75
2022/03/30 06:28:26;;;;;;;33.97;21.97;;;;;;;7.26;100.00;94830.81;5099066;28;20016;-75
2022/03/30 06:30:52;;;;;;;35.23;21.27;;;;;;;7.22;100.00;94829.53;5109815;28;20031;-75
2022/03/30 06:33:18;;;;;;;35.43;21.63;;;;;;;7.19;100.00;94832.50;5094906;28;20031;-75
2022/03/30 06:35:44;;;;;;;37.53;21.53;;;;;;;7.13;100.00;94830.56;5106534;28;20168;-74
2022/03/30 06:38:10;;;;;;;35.90;23.20;;;;;;;7.08;100.00;94838.13;5110084;28;20027;-75
2022/03/30 06:40:36;;;;;;;32.90;20.40;;;;;;;7.07;100.00;94831.25;5107740;28;20046;-75
2022/03/30 06:43:01;;;;;;;35.40;20.37;;;;;;;7.00;100.00;94830.31;5104912;28;20038;-75
2022/03/30 06:45:27;;;;;;;36.83;21.17;;;;;;;7.11;100.00;94837.78;5104891;28;20102;-75
2022/03/30 06:47:53;;;;;;;31.60;20.83;;;;;;;7.10;100.00;94836.13;5104302;28;20035;-74
2022/03/30 06:50:19;;;;;;;34.60;19.70;;;;;;;6.96;100.00;94827.22;5109442;28;20050;-75
2022/03/30 06:52:46;;;;;;;35.97;20.30;;;;;;;6.99;100.00;94833.94;5108226;28;20088;-75
2022/03/30 06:55:14;;;;;;;35.17;20.40;;;;;;;6.98;100.00;94827.88;5100411;28;20569;-75
2022/03/30 06:57:43;;;;;;;38.73;20.90;;;;;;;6.97;100.00;94826.25;5108488;28;20083;-75
2022/03/30 07:00:13;;;;;;;34.43;19.93;;;;;;;7.05;100.00;94828.81;5106929;28;20388;-75
2022/03/30 07:02:40;;;;;;;38.77;19.83;;;;;;;7.09;100.00;94824.06;5094694;28;20035;-75
2022/03/30 07:05:06;;;;;;;31.63;18.03;;;;;;;7.07;100.00;94824.22;5104825;28;20027;-74
2022/03/30 07:10:18;;;;;;;33.27;17.07;;;;;;;6.98;100.00;94817.44;5104500;28;20476;-74
2022/03/30 07:12:46;;;;;;;32.80;17.23;;;;;;;6.99;100.00;94820.84;5104242;28;20112;-74
2022/03/30 07:15:13;;;;;;;37.03;17.97;;;;;;;7.11;100.00;94811.66;5106720;28;20046;-75
2022/03/30 07:17:45;;;;;;;34.43;18.40;;;;;;;7.07;100.00;94810.34;5110892;27;20476;-75
2022/03/30 07:20:12;;;;;;;29.37;16.33;;;;;;;7.07;100.00;94810.34;5105270;28;20027;-75
2022/03/30 07:22:38;;;;;;;35.60;16.47;;;;;;;7.10;100.00;94804.78;5099397;28;20023;-75
2022/03/30 07:25:04;;;;;;;35.53;17.17;;;;;;;7.23;100.00;94809.44;5103440;28;20557;-75
2022/03/30 07:27:31;;;;;;;29.90;15.73;;;;;;;7.19;100.00;94803.75;5108724;28;20031;-75
2022/03/30 07:29:57;;;;;;;36.10;17.77;;;;;;;7.32;100.00;94806.59;5103068;28;20141;-75
2022/03/30 07:32:24;;;;;;;38.10;19.30;;;;;;;7.31;100.00;94802.38;5088855;28;20020;-76
2022/03/30 07:34:52;;;;;;;34.47;16.87;;;;;;;7.37;100.00;94800.84;5107786;28;20805;-76
2022/03/30 07:37:18;;;;;;;34.27;15.93;;;;;;;7.41;100.00;94790.84;5109089;28;20027;-75
2022/03/30 07:39:43;;;;;;;30.00;17.03;;;;;;;7.46;100.00;94794.56;5102395;28;20034;-76
2022/03/30 07:42:09;;;;;;;37.03;17.67;;;;;;;7.54;100.00;94788.44;5106737;28;20034;-75
2022/03/30 07:44:35;;;;;;;30.03;16.70;;;;;;;7.49;100.00;94786.38;5107104;28;20520;-76
2022/03/30 07:47:02;;;;;;;38.00;16.30;;;;;;;7.40;100.00;94790.03;5097691;28;20060;-75
2022/03/30 07:49:28;;;;;;;28.70;15.87;;;;;;;7.53;100.00;94784.22;5105459;28;20027;-75
2022/03/30 07:51:54;;;;;;;34.37;17.17;;;;;;;7.57;100.00;94783.66;5102459;28;20027;-76
2022/03/30 07:54:20;;;;;;;35.17;17.07;;;;;;;7.60;100.00;94776.47;5099167;28;20075;-75
2022/03/30 07:56:45;;;;;;;24.87;15.93;;;;;;;7.62;100.00;94777.13;5089976;28;20027;-76
2022/03/30 07:59:11;;;;;;;40.67;20.70;;;;;;;7.39;100.00;94783.19;5090183;28;20024;-76
2022/03/30 08:01:37;;;;;;;41.70;22.57;;;;;;;7.28;100.00;94776.56;5108487;28;20035;-76
2022/03/30 08:04:03;;;;;;;36.60;22.13;;;;;;;7.44;100.00;94772.19;5099526;28;20502;-76
2022/03/30 08:06:29;;;;;;;40.10;21.97;;;;;;;7.29;100.00;94774.75;5099130;28;20051;-76
2022/03/30 08:08:54;;;;;;;31.53;20.90;;;;;;;7.36;100.00;94773.06;5107702;28;20028;-75
2022/03/30 08:11:20;;;;;;;34.93;20.07;;;;;;;7.29;100.00;94772.94;5106149;28;20353;-76
2022/03/30 08:13:46;;;;;;;33.90;18.53;;;;;;;7.40;100.00;94778.75;5085506;28;20059;-76
2022/03/30 08:16:12;;;;;;;28.60;16.83;;;;;;;7.50;100.00;94779.31;5106735;28;20124;-76
2022/03/30 08:18:37;;;;;;;32.83;15.47;;;;;;;7.55;100.00;94774.41;5111536;28;20051;-76
2022/03/30 08:23:48;;;;;;;36.40;15.50;;;;;;;7.66;100.00;94775.78;5109205;28;20047;-76
2022/03/30 08:26:13;;;;;;;28.90;15.27;;;;;;;7.64;100.00;94775.13;5108970;28;20484;-76
2022/03/30 08:28:39;;;;;;;34.13;14.00;;;;;;;7.67;100.00;94766.91;5112370;28;20028;-76
2022/03/30 08:31:05;;;;;;;26.53;14.67;;;;;;;7.71;100.00;94771.66;5111939;28;20019;-75
2022/03/30 08:33:31;;;;;;;31.97;14.60;;;;;;;7.75;100.00;94772.91;5112268;28;20500;-76
2022/03/30 08:35:57;;;;;;;29.00;14.93;;;;;;;7.72;100.00;94775.88;5096086;28;20040;-77
2022/03/30 08:38:22;;;;;;;35.20;16.77;;;;;;;7.68;100.00;94779.84;5108900;28;20040;-77
2022/03/30 08:40:49;;;;;;;28.73;14.60;;;;;;;7.70;100.00;94780.47;5111567;28;20032;-77
2022/03/30 08:43:15;;;;;;;30.73;15.60;;;;;;;7.78;100.00;94777.78;5109840;28;20442;-76
2022/03/30 08:45:41;;;;;;;34.13;15.07;;;;;;;7.78;100.00;94776.97;5112199;28;20028;-76
2022/03/30 08:48:07;;;;;;;28.93;15.07;;;;;;;7.75;100.00;94777.34;5111541;28;20666;-77
2022/03/30 08:50:34;;;;;;;34.27;14.63;;;;;;;7.84;100.00;94780.66;5110267;28;20031;-77
2022/03/30 08:53:04;;;;;;;27.97;14.07;;;;;;;7.90;100.00;94774.72;5107074;28;20777;-77
2022/03/30 08:55:31;;;;;;;29.67;15.27;;;;;;;7.81;100.00;94768.75;5104908;28;20039;-77
2022/03/30 08:57:57;;;;;;;32.23;15.70;;;;;;;7.73;100.00;94774.88;5107335;28;20495;-75
2022/03/30 09:00:24;;;;;;;31.50;16.13;;;;;;;7.83;100.00;94772.00;5107150;28;20069;-73
2022/03/30 09:03:01;;;;;;;26.30;14.80;;;;;;;7.83;100.00;94773.81;5109286;28;20764;-76
2022/03/30 09:05:32;;;;;;;31.73;15.07;;;;;;;7.83;100.00;94763.34;5083067;28;20035;-76
2022/03/30 09:08:14;;;;;;;28.70;14.60;;;;;;;7.77;100.00;94765.66;5114956;27;20034;-75
2022/03/30 09:10:44;;;;;;;31.63;16.33;;;;;;;7.88;100.00;94764.44;5115030;27;20185;-77
2022/03/30 09:13:12;;;;;;;28.87;16.40;;;;;;;7.76;100.00;94766.66;5124513;27;20036;-75
2022/03/30 09:15:38;;;;;;;31.10;15.47;;;;;;;7.74;100.00;94768.66;5111563;28;20031;-77
2022/03/30 09:18:06;;;;;;;29.20;14.60;;;;;;;7.83;100.00;94769.41;5109694;28;20057;-77
2022/03/30 09:20:33;;;;;;;29.00;15.03;;;;;;;7.87;100.00;94767.22;5109050;28;20092;-76
2022/03/30 09:23:00;;;;;;;28.43;14.80;;;;;;;7.87;100.00;94767.22;5110460;28;20080;-75
2022/03/30 09:25:28;;;;;;;29.80;15.07;;;;;;;7.83;100.00;94768.59;5110262;28;20405;-77
2022/03/30 09:27:56;;;;;;;28.67;15.10;;;;;;;7.80;100.00;94767.13;5110456;28;20028;-76
2022/03/30 09:30:24;;;;;;;37.07;17.10;;;;;;;7.89;100.00;94760.84;5108723;28;20025;-76
2022/03/30 09:32:52;;;;;;;26.73;15.13;;;;;;;7.89;100.00;94757.41;5110960;28;20039;-77
2022/03/30 09:35:27;;;;;;;35.73;17.20;;;;;;;7.89;100.00;94757.41;5098810;27;20092;-77
2022/03/30 09:38:09;;;;;;;33.93;15.87;;;;;;;7.99;100.00;94755.34;5111354;28;20036;-76
2022/03/30 09:40:37;;;;;;;35.57;15.17;;;;;;;8.02;100.00;94757.59;5106447;28;20100;-76
2022/03/30 09:43:13;;;;;;;32.50;15.20;;;;;;;8.07;100.00;94755.25;5101038;28;20213;-76
2022/03/30 09:45:39;;;;;;;35.57;17.27;;;;;;;8.05;100.00;94757.25;5101434;28;20026;-76
2022/03/30 09:48:12;;;;;;;27.00;14.97;;;;;;;8.10;100.00;94752.28;5096550;28;20020;-76
2022/03/30 09:50:43;;;;;;;36.25;13.60;;;;;;;8.03;100.00;94748.75;5109213;28;20061;-75
2022/03/30 09:53:13;;;;;;;30.13;12.77;;;;;;;8.02;100.00;94752.38;5110376;28;20034;-76
2022/03/30 09:56:10;;;;;;;26.17;11.87;;;;;;;7.96;100.00;94746.03;5109684;27;20110;-76
2022/03/30 09:58:38;;;;;;;31.67;11.63;;;;;;;8.06;100.00;94740.53;5099404;28;20044;-76
2022/03/30 10:01:19;;;;;;;28.20;13.50;;;;;;;8.17;100.00;94737.47;5092327;28;20417;-74
2022/03/30 10:03:51;;;;;;;33.97;14.57;;;;;;;8.17;100.00;94731.41;5102354;28;20030;-76
2022/03/30 10:06:20;;;;;;;30.90;14.27;;;;;;;8.24;100.00;94733.13;5097175;28;20027;-76
2022/03/30 10:08:48;;;;;;;28.57;13.00;;;;;;;8.18;100.00;94730.41;5109633;28;20072;-76
2022/03/30 10:11:17;;;;;;;31.30;14.80;;;;;;;8.23;100.00;94721.03;5118615;27;20729;-76
2022/03/30 10:13:46;;;;;;;25.50;14.50;;;;;;;8.37;100.00;94724.63;5109153;28;20031;-76
2022/03/30 10:16:13;;;;;;;31.47;15.20;;;;;;;8.48;100.00;94710.28;5100541;28;20034;-76
2022/03/30 10:18:40;;;;;;;29.10;13.83;;;;;;;8.66;100.00;94720.38;5101778;28;20080;-75
2022/03/30 10:21:15;;;;;;;31.00;15.37;;;;;;;8.71;100.00;94713.56;5105375;28;20031;-76
2022/03/30 10:24:10;;;;;;;34.30;16.03;;;;;;;8.92;100.00;94706.72;5105575;28;20030;-76
2022/03/30 10:26:52;;;;;;;31.93;14.67;;;;;;;9.04;100.00;94699.19;5115774;27;20397;-77
2022/03/30 10:29:22;;;;;;;30.60;13.40;;;;;;;9.22;100.00;94707.41;5107444;28;20051;-76
2022/03/30 10:32:35;;;;;;;28.83;12.40;;;;;;;9.49;100.00;94702.38;5113189;27;20085;-76
2022/03/30 10:35:08;;;;;;;30.20;12.25;;;;;;;9.66;100.00;94699.31;5079852;28;20575;-76
2022/03/30 10:37:55;;;;;;;29.80;12.07;;;;;;;9.62;100.00;94697.25;5100140;28;20499;-76
2022/03/30 10:40:26;;;;;;;26.87;12.40;;;;;;;9.58;100.00;94696.81;5101518;28;20047;-76
2022/03/30 10:42:53;;;;;;;28.17;12.37;;;;;;;9.49;100.00;94695.34;5107143;28;20027;-75
2022/03/30 10:45:26;;;;;;;24.53;12.50;;;;;;;9.64;100.00;94687.38;5108480;28;20058;-76
2022/03/30 10:48:10;;;;;;;22.15;11.32;;;;;;;9.54;100.00;94681.66;5103914;28;20122;-75
2022/03/30 10:50:46;;;;;;;26.07;11.27;;;;;;;9.71;100.00;94676.91;5101798;28;20115;-75
2022/03/30 10:53:38;;;;;;;23.57;11.83;;;;;;;9.84;100.00;94683.06;5109411;28;20062;-75
2022/03/30 10:56:16;;;;;;;25.33;10.77;;;;;;;9.78;100.00;94680.41;5106441;28;20042;-76
2022/03/30 10:58:55;;;;;;;23.97;10.67;;;;;;;9.72;100.00;94678.53;5100901;28;20032;-76
2022/03/30 11:01:35;;;;;;;21.30;9.87;;;;;;;9.86;100.00;94672.38;5103725;28;20174;-75
2022/03/30 11:04:04;;;;;;;23.03;10.53;;;;;;;9.98;100.00;94672.63;5112443;27;20043;-76
2022/03/30 11:06:45;;;;;;;22.87;11.10;;;;;;;9.96;100.00;94672.84;5103883;28;20047;-74
2022/03/30 11:09:20;;;;;;;25.60;12.50;;;;;;;9.81;100.00;94667.69;5109493;27;20683;-75
2022/03/30 11:12:05;;;;;;;24.23;10.70;;;;;;;9.84;100.00;94663.88;5104233;28;20066;-76
2022/03/30 11:14:34;;;;;;;23.03;10.63;;;;;;;9.68;100.00;94659.72;5089224;28;20122;-75
2022/03/30 11:17:05;;;;;;;34.53;11.27;;;;;;;9.87;100.00;94655.63;5114353;27;20039;-76
2022/03/30 11:19:58;;;;;;;26.00;10.67;;;;;;;10.00;100.00;94654.88;5102126;28;20031;-76
2022/03/30 11:22:33;;;;;;;29.83;11.32;;;;;;;10.07;100.00;94653.09;5106601;28;20040;-76
2022/03/30 11:25:14;;;;;;;29.83;10.07;;;;;;;9.88;100.00;94649.34;5090743;28;20761;-75
2022/03/30 11:27:43;;;;;;;25.27;10.10;;;;;;;9.80;100.00;94657.41;5102729;28;20115;-75
2022/03/30 11:30:16;;;;;;;29.73;9.33;;;;;;;9.71;100.00;94651.47;5104602;28;20402;-76
2022/03/30 11:32:45;;;;;;;;;;;;;;;9.78;100.00;94654.16;5110398;28;20440;-77
2022/03/30 11:35:14;;;;;;;26.00;10.73;;;;;;;9.78;100.00;94649.69;5109753;28;19921;-77
2022/03/30 11:37:48;;;;;;;22.57;9.87;;;;;;;9.94;100.00;94640.72;5121498;27;20551;-76